Time;durP1;ratioP1;P1;durP2;ratioP2;P2;SDS_P1;SDS_P2;PMS_P1;PMS_P2;Temp;Humidity;BMP_temperature;BMP_pressure;BME280_temperature;BME280_humidity;BME280_pressure;Samples;Min_cycle;Max_cycle;Signal;HPM_P1;HPM_P2
2023/12/31 00:01:35;;;;;;;437.40;31.77;;;;;3.80;95978.00;;;;8298327;28;20221;-69
2023/12/31 00:05:39;;;;;;;148.83;20.47;;;;;3.80;95967.00;;;;8301266;28;20214;-69
2023/12/31 00:09:42;;;;;;;214.00;22.07;;;;;3.80;95965.00;;;;8298752;28;20201;-69
2023/12/31 00:13:46;;;;;;;164.13;20.40;;;;;3.70;95955.00;;;;8299917;28;20232;-69
2023/12/31 00:17:49;;;;;;;279.47;25.23;;;;;3.70;95942.00;;;;8299298;28;20596;-69
2023/12/31 00:21:52;;;;;;;197.27;21.63;;;;;3.60;95944.00;;;;8299634;28;20203;-69
2023/12/31 00:25:55;;;;;;;255.60;24.77;;;;;3.50;95951.00;;;;8298696;28;20316;-69
2023/12/31 00:30:00;;;;;;;173.47;20.67;;;;;3.50;95947.00;;;;8299433;28;20197;-68
2023/12/31 00:34:03;;;;;;;234.10;22.60;;;;;3.50;95937.00;;;;8298891;28;20244;-68
2023/12/31 00:38:06;;;;;;;308.13;24.93;;;;;3.40;95934.00;;;;8298744;28;20198;-68
2023/12/31 00:42:09;;;;;;;236.17;23.60;;;;;3.40;95933.00;;;;8297171;28;20197;-69
2023/12/31 00:46:14;;;;;;;300.00;26.17;;;;;3.50;95919.00;;;;8298826;28;20279;-68
2023/12/31 00:50:19;;;;;;;301.53;26.40;;;;;3.50;95924.00;;;;8298042;28;20208;-68
2023/12/31 00:54:22;;;;;;;331.83;27.90;;;;;3.50;95917.00;;;;8301686;28;20639;-69
2023/12/31 00:58:25;;;;;;;274.93;24.83;;;;;3.60;95919.00;;;;8305682;28;20289;-68
2023/12/31 01:02:30;;;;;;;267.60;27.37;;;;;3.60;95926.00;;;;8305082;28;20264;-68
2023/12/31 01:06:33;;;;;;;347.87;26.53;;;;;3.50;95922.00;;;;8304915;28;20265;-68
2023/12/31 01:10:36;;;;;;;185.70;21.57;;;;;3.40;95922.00;;;;8303480;28;20197;-68
2023/12/31 01:14:39;;;;;;;227.50;25.17;;;;;3.40;95917.00;;;;8303957;28;20205;-68
2023/12/31 01:18:44;;;;;;;186.27;23.33;;;;;3.40;95906.00;;;;8303544;28;20201;-67
2023/12/31 01:22:47;;;;;;;386.00;29.33;;;;;3.30;95903.00;;;;8304416;28;20203;-68
2023/12/31 01:26:50;;;;;;;228.63;21.83;;;;;3.30;95905.00;;;;8306713;28;20602;-68
2023/12/31 01:30:53;;;;;;;190.87;21.53;;;;;3.30;95900.00;;;;8303644;28;20229;-68
2023/12/31 01:34:58;;;;;;;232.70;23.37;;;;;3.30;95898.00;;;;8303403;28;20198;-68
2023/12/31 01:39:01;;;;;;;204.90;21.67;;;;;3.20;95891.00;;;;8304321;28;20202;-68
2023/12/31 01:43:04;;;;;;;309.13;26.07;;;;;3.20;95887.00;;;;8304154;28;20242;-68
2023/12/31 01:47:09;;;;;;;384.13;29.30;;;;;3.20;95877.00;;;;8302197;28;20316;-68
2023/12/31 01:51:13;;;;;;;233.50;23.27;;;;;3.20;95874.00;;;;8303116;28;20204;-68
2023/12/31 01:55:17;;;;;;;183.90;22.27;;;;;3.20;95860.00;;;;8303607;28;20236;-68
2023/12/31 01:59:21;;;;;;;248.73;24.83;;;;;3.20;95858.00;;;;8303113;28;20201;-68
2023/12/31 02:03:29;;;;;;;165.10;21.47;;;;;3.20;95855.00;;;;8304564;28;20233;-68
2023/12/31 02:07:33;;;;;;;316.20;26.80;;;;;3.20;95848.00;;;;8301153;28;20214;-68
2023/12/31 02:11:44;;;;;;;155.17;20.60;;;;;3.20;95850.00;;;;8302560;28;20248;-68
2023/12/31 02:15:47;;;;;;;343.57;26.33;;;;;3.20;95838.00;;;;8303792;28;20611;-68
2023/12/31 02:19:50;;;;;;;289.73;26.47;;;;;3.30;95837.00;;;;8302325;28;20194;-68
2023/12/31 02:23:55;;;;;;;177.37;22.10;;;;;3.20;95835.00;;;;8302102;28;20225;-68
2023/12/31 02:27:59;;;;;;;251.67;25.63;;;;;3.20;95826.00;;;;8303024;28;20260;-68
2023/12/31 02:32:02;;;;;;;504.13;35.70;;;;;3.20;95824.00;;;;8301079;28;20235;-68
2023/12/31 02:36:07;;;;;;;279.13;26.67;;;;;3.10;95817.00;;;;8302742;28;20237;-68
2023/12/31 02:40:11;;;;;;;236.47;25.27;;;;;3.10;95797.00;;;;8302863;28;20281;-68
2023/12/31 02:44:15;;;;;;;269.67;24.80;;;;;3.10;95793.00;;;;8300959;28;20194;-68
2023/12/31 02:48:18;;;;;;;359.57;27.03;;;;;3.20;95802.00;;;;8301141;28;20309;-68
2023/12/31 02:52:21;;;;;;;161.97;22.43;;;;;3.20;95801.00;;;;8301686;28;20201;-68
2023/12/31 02:56:25;;;;;;;251.27;24.03;;;;;3.30;95794.00;;;;8302044;28;20198;-68
2023/12/31 03:00:29;;;;;;;244.43;25.00;;;;;3.30;95790.00;;;;8299607;28;20298;-68
2023/12/31 03:04:32;;;;;;;149.73;20.17;;;;;3.30;95781.00;;;;8331442;22;20268;-70
2023/12/31 03:08:35;;;;;;;246.33;25.37;;;;;3.20;95780.00;;;;8289542;28;20228;-73
2023/12/31 03:12:38;;;;;;;285.90;26.20;;;;;3.20;95772.00;;;;8290758;28;20209;-69
2023/12/31 03:16:45;;;;;;;254.93;23.40;;;;;3.20;95759.00;;;;8289427;28;20202;-72
2023/12/31 03:20:48;;;;;;;300.43;26.37;;;;;3.20;95758.00;;;;8292633;28;20272;-70
2023/12/31 03:24:52;;;;;;;376.23;29.63;;;;;3.20;95761.00;;;;8289757;28;20602;-71
2023/12/31 03:28:55;;;;;;;351.33;26.93;;;;;3.20;95746.00;;;;8290528;28;20221;-70
2023/12/31 03:33:03;;;;;;;287.30;25.47;;;;;3.10;95755.00;;;;8289506;28;20316;-71
2023/12/31 03:37:07;;;;;;;395.50;29.70;;;;;3.10;95736.00;;;;8289113;28;20248;-73
2023/12/31 03:41:10;;;;;;;485.20;33.47;;;;;3.10;95744.00;;;;8291024;28;20206;-73
2023/12/31 03:45:13;;;;;;;397.03;31.67;;;;;3.20;95731.00;;;;8286542;28;20234;-72
2023/12/31 03:49:18;;;;;;;297.20;26.93;;;;;3.20;95728.00;;;;8288483;28;20200;-73
2023/12/31 03:53:21;;;;;;;326.07;29.50;;;;;3.40;95732.00;;;;8289174;28;20209;-72
2023/12/31 03:57:24;;;;;;;299.87;28.37;;;;;3.40;95731.00;;;;8291044;28;20193;-71
2023/12/31 04:01:27;;;;;;;137.13;18.37;;;;;3.50;95740.00;;;;8284546;28;20261;-72
2023/12/31 04:05:31;;;;;;;223.70;22.03;;;;;3.50;95739.00;;;;8267207;28;20198;-72
2023/12/31 04:09:35;;;;;;;233.63;22.37;;;;;3.50;95731.00;;;;8273470;28;20209;-71
2023/12/31 04:13:41;;;;;;;320.03;26.77;;;;;3.50;95719.00;;;;8272673;28;20297;-70
2023/12/31 04:17:45;;;;;;;322.63;26.83;;;;;3.40;95717.00;;;;8274450;28;20202;-69
2023/12/31 04:21:50;;;;;;;230.43;23.33;;;;;3.40;95716.00;;;;8275529;28;20197;-70
2023/12/31 04:25:53;;;;;;;306.60;25.10;;;;;3.50;95703.00;;;;8274895;28;20229;-72
2023/12/31 04:29:56;;;;;;;339.60;26.50;;;;;3.40;95684.00;;;;8274340;28;21008;-71
2023/12/31 04:33:59;;;;;;;278.43;24.13;;;;;3.40;95692.00;;;;8272991;28;20251;-74
2023/12/31 04:38:04;;;;;;;232.30;24.50;;;;;3.40;95668.00;;;;8277651;28;20205;-71
2023/12/31 04:42:07;;;;;;;265.23;25.13;;;;;3.40;95676.00;;;;8273135;28;20232;-72
2023/12/31 04:46:10;;;;;;;300.03;25.97;;;;;3.40;95681.00;;;;8272954;28;20261;-69
2023/12/31 04:50:13;;;;;;;296.17;26.63;;;;;3.40;95675.00;;;;8267862;28;20213;-71
2023/12/31 04:54:18;;;;;;;441.33;30.77;;;;;3.40;95665.00;;;;8274546;28;20221;-71
2023/12/31 04:58:21;;;;;;;309.93;26.43;;;;;3.40;95639.00;;;;8269029;28;20200;-71
2023/12/31 05:02:27;;;;;;;443.63;33.27;;;;;3.40;95645.00;;;;8266913;28;20239;-72
2023/12/31 05:06:30;;;;;;;345.70;26.93;;;;;3.30;95643.00;;;;8269388;28;20734;-73
2023/12/31 05:10:34;;;;;;;493.40;34.10;;;;;3.30;95622.00;;;;8269071;28;20342;-72
2023/12/31 05:14:37;;;;;;;1129.93;105.23;;;;;3.30;95633.00;;;;8272955;28;20252;-70
2023/12/31 05:18:41;;;;;;;485.20;40.50;;;;;3.40;95629.00;;;;8270689;28;20726;-70
2023/12/31 05:22:44;;;;;;;642.40;46.47;;;;;3.50;95636.00;;;;8276046;28;20202;-72
2023/12/31 05:26:48;;;;;;;312.70;31.50;;;;;3.50;95623.00;;;;8270087;28;20724;-72
2023/12/31 05:30:51;;;;;;;609.03;41.20;;;;;3.50;95626.00;;;;8272526;28;20212;-71
2023/12/31 05:34:55;;;;;;;1282.00;109.07;;;;;3.50;95632.00;;;;8274121;28;20202;-73
2023/12/31 05:38:58;;;;;;;318.97;29.17;;;;;3.50;95640.00;;;;8272623;28;20211;-70
2023/12/31 05:43:02;;;;;;;113.67;22.03;;;;;3.50;95632.00;;;;8275810;28;20212;-72
2023/12/31 05:47:06;;;;;;;229.50;27.47;;;;;3.60;95622.00;;;;8281104;28;20233;-73
2023/12/31 05:51:09;;;;;;;315.57;26.50;;;;;3.60;95620.00;;;;8273690;28;20946;-71
2023/12/31 05:55:12;;;;;;;440.63;33.50;;;;;3.50;95622.00;;;;8278560;28;20292;-72
2023/12/31 05:59:17;;;;;;;245.63;23.97;;;;;3.50;95615.00;;;;8275175;28;20198;-73
2023/12/31 06:03:20;;;;;;;426.87;29.77;;;;;3.40;95606.00;;;;8274349;28;20299;-71
2023/12/31 06:07:23;;;;;;;535.00;37.93;;;;;3.40;95603.00;;;;8279631;28;20324;-71
2023/12/31 06:11:27;;;;;;;289.20;30.87;;;;;3.30;95605.00;;;;8278773;28;20278;-74
2023/12/31 06:15:31;;;;;;;77.20;19.57;;;;;3.30;95598.00;;;;8277288;28;20774;-72
2023/12/31 06:19:34;;;;;;;66.73;20.03;;;;;3.20;95591.00;;;;8277793;28;20264;-72
2023/12/31 06:23:39;;;;;;;72.20;20.67;;;;;3.10;95589.00;;;;8276577;28;20208;-72
2023/12/31 06:27:42;;;;;;;71.00;19.90;;;;;3.00;95579.00;;;;8277555;28;20698;-72
2023/12/31 06:31:47;;;;;;;58.07;19.43;;;;;3.00;95571.00;;;;8275761;28;21198;-71
2023/12/31 06:35:50;;;;;;;63.77;20.03;;;;;3.00;95568.00;;;;8275674;28;20549;-71
2023/12/31 06:39:53;;;;;;;62.00;20.37;;;;;2.90;95555.00;;;;8269155;28;20202;-72
2023/12/31 06:43:56;;;;;;;63.60;19.03;;;;;2.90;95552.00;;;;8273783;28;20217;-70
2023/12/31 06:48:01;;;;;;;60.30;18.70;;;;;2.90;95552.00;;;;8275554;28;20607;-72
2023/12/31 06:52:04;;;;;;;56.13;21.07;;;;;2.90;95545.00;;;;8273344;28;20209;-71
2023/12/31 06:56:09;;;;;;;47.53;16.57;;;;;2.80;95542.00;;;;8272920;28;20721;-73
2023/12/31 07:00:13;;;;;;;50.10;17.77;;;;;2.80;95549.00;;;;8272967;28;20829;-74
2023/12/31 07:04:17;;;;;;;50.47;17.93;;;;;2.70;95549.00;;;;8274443;28;20627;-73
2023/12/31 07:08:20;;;;;;;55.77;19.37;;;;;2.70;95560.00;;;;8271294;28;20238;-71
2023/12/31 07:12:23;;;;;;;50.57;19.67;;;;;2.70;95556.00;;;;8269756;28;20209;-70
2023/12/31 07:16:27;;;;;;;51.20;18.00;;;;;2.70;95554.00;;;;8274018;28;20198;-72
2023/12/31 07:20:32;;;;;;;53.10;17.67;;;;;2.70;95557.00;;;;8274275;28;20207;-73
2023/12/31 07:24:36;;;;;;;626.67;39.67;;;;;2.60;95547.00;;;;8276320;28;20293;-74
2023/12/31 07:28:39;;;;;;;224.87;25.93;;;;;2.60;95545.00;;;;8272975;28;20240;-73
2023/12/31 07:32:42;;;;;;;122.20;22.67;;;;;2.60;95539.00;;;;8272484;28;20263;-75
2023/12/31 07:36:47;;;;;;;55.80;19.20;;;;;2.80;95535.00;;;;8273987;28;20211;-71
2023/12/31 07:40:50;;;;;;;63.13;20.77;;;;;2.90;95517.00;;;;8272913;28;20207;-74
2023/12/31 07:44:53;;;;;;;60.30;19.27;;;;;3.10;95535.00;;;;8271926;28;20208;-72
2023/12/31 07:48:56;;;;;;;69.93;20.27;;;;;3.30;95522.00;;;;8272604;28;20235;-74
2023/12/31 07:53:01;;;;;;;62.87;20.30;;;;;3.40;95511.00;;;;8274829;28;20205;-73
2023/12/31 07:57:04;;;;;;;76.30;22.90;;;;;3.60;95509.00;;;;8274674;28;21140;-72
2023/12/31 08:01:08;;;;;;;80.53;21.97;;;;;3.70;95504.00;;;;8272582;28;21298;-71
2023/12/31 08:05:12;;;;;;;58.10;19.97;;;;;3.80;95468.00;;;;8273001;28;20723;-71
2023/12/31 08:09:16;;;;;;;64.27;21.00;;;;;3.80;95500.00;;;;8272811;28;20233;-73
2023/12/31 08:13:20;;;;;;;68.00;22.03;;;;;3.90;95508.00;;;;8268483;28;20207;-70
2023/12/31 08:17:24;;;;;;;65.27;20.40;;;;;4.00;95514.00;;;;8271244;28;20206;-72
2023/12/31 08:21:28;;;;;;;59.23;20.37;;;;;4.10;95511.00;;;;8270302;28;20610;-70
2023/12/31 08:25:32;;;;;;;55.17;21.07;;;;;4.20;95507.00;;;;8272523;28;20309;-70
2023/12/31 08:29:36;;;;;;;68.20;21.23;;;;;4.30;95502.00;;;;8271078;28;20236;-73
2023/12/31 08:33:39;;;;;;;61.73;20.63;;;;;4.40;95510.00;;;;8265177;28;20231;-74
2023/12/31 08:37:43;;;;;;;54.43;20.77;;;;;4.50;95494.00;;;;8271470;28;20655;-71
2023/12/31 08:41:47;;;;;;;49.20;19.27;;;;;4.60;95499.00;;;;8268755;28;20306;-73
2023/12/31 08:45:51;;;;;;;68.70;20.77;;;;;4.60;95504.00;;;;8271071;28;20201;-70
2023/12/31 08:49:54;;;;;;;52.23;17.90;;;;;4.70;95506.00;;;;8270744;28;20230;-72
2023/12/31 08:53:57;;;;;;;58.40;19.33;;;;;4.80;95502.00;;;;8273200;28;20314;-72
2023/12/31 08:58:01;;;;;;;57.67;20.87;;;;;5.00;95500.00;;;;8271874;28;20204;-74
2023/12/31 09:02:05;;;;;;;48.03;17.77;;;;;5.10;95501.00;;;;8270188;28;20700;-71
2023/12/31 09:06:11;;;;;;;60.00;21.97;;;;;5.10;95506.00;;;;8269374;28;20693;-73
2023/12/31 09:10:14;;;;;;;49.63;18.50;;;;;5.20;95489.00;;;;8269191;28;20242;-73
2023/12/31 09:14:18;;;;;;;59.23;21.13;;;;;5.20;95500.00;;;;8270575;28;20260;-73
2023/12/31 09:18:21;;;;;;;60.07;20.20;;;;;5.20;95485.00;;;;8278758;28;20211;-74
2023/12/31 09:22:27;;;;;;;61.17;20.37;;;;;5.30;95498.00;;;;8272877;28;20287;-74
2023/12/31 09:26:31;;;;;;;45.07;15.93;;;;;5.40;95492.00;;;;8269502;28;20368;-76
2023/12/31 09:30:36;;;;;;;58.80;20.13;;;;;5.50;95501.00;;;;8271340;28;20221;-75
2023/12/31 09:34:39;;;;;;;54.77;20.60;;;;;5.70;95499.00;;;;8274273;28;20205;-75
2023/12/31 09:38:43;;;;;;;54.97;20.67;;;;;5.80;95512.00;;;;8273818;28;20213;-76
2023/12/31 09:42:49;;;;;;;54.67;20.13;;;;;5.90;95510.00;;;;8276858;28;20206;-76
2023/12/31 09:47:05;;;;;;;48.20;19.23;;;;;5.90;95489.00;;;;8272244;28;20202;-76
2023/12/31 09:51:13;;;;;;;53.53;19.63;;;;;5.90;95492.00;;;;8271802;28;20287;-75
2023/12/31 09:55:18;;;;;;;59.70;20.70;;;;;6.00;95488.00;;;;8273512;28;20682;-78
2023/12/31 09:59:21;;;;;;;55.87;19.13;;;;;6.10;95477.00;;;;8273128;28;20202;-77
2023/12/31 10:03:27;;;;;;;46.47;19.03;;;;;6.20;95492.00;;;;8276058;28;20234;-76
2023/12/31 10:07:30;;;;;;;53.17;19.37;;;;;6.30;95495.00;;;;8273592;28;20251;-76
2023/12/31 10:11:34;;;;;;;58.33;19.73;;;;;6.30;95493.00;;;;8272911;28;20332;-76
2023/12/31 10:15:38;;;;;;;54.97;19.03;;;;;6.30;95489.00;;;;8273119;28;20695;-75
2023/12/31 10:19:42;;;;;;;43.53;16.93;;;;;6.20;95482.00;;;;8272804;28;20293;-76
2023/12/31 10:23:45;;;;;;;62.07;20.57;;;;;6.10;95476.00;;;;8274096;28;20195;-76
2023/12/31 10:27:53;;;;;;;58.60;19.77;;;;;6.10;95474.00;;;;8275662;28;20263;-75
2023/12/31 10:31:56;;;;;;;64.30;20.47;;;;;6.10;95473.00;;;;8273923;28;20297;-77
2023/12/31 10:36:05;;;;;;;60.37;20.27;;;;;6.20;95478.00;;;;8274399;28;20690;-75
2023/12/31 10:40:19;;;;;;;55.77;20.20;;;;;6.30;95471.00;;;;8271522;28;20212;-76
2023/12/31 10:44:25;;;;;;;55.07;19.90;;;;;6.40;95443.00;;;;8274828;28;20237;-76
2023/12/31 10:48:29;;;;;;;103.03;33.93;;;;;6.40;95428.00;;;;8272417;28;20380;-75
2023/12/31 10:52:36;;;;;;;67.77;24.73;;;;;6.50;95420.00;;;;8272379;28;20206;-76
2023/12/31 10:56:41;;;;;;;52.57;21.27;;;;;6.60;95413.00;;;;8271816;28;20216;-77
2023/12/31 11:00:45;;;;;;;48.87;18.77;;;;;6.60;95413.00;;;;8275043;28;20212;-78
2023/12/31 11:04:49;;;;;;;59.77;21.13;;;;;6.70;95416.00;;;;8273239;28;20860;-75
2023/12/31 11:08:56;;;;;;;43.40;18.77;;;;;6.70;95424.00;;;;8275190;28;20625;-76
2023/12/31 11:13:03;;;;;;;48.77;18.57;;;;;6.80;95428.00;;;;8271573;28;20286;-77
2023/12/31 11:17:24;;;;;;;44.20;18.47;;;;;6.80;95420.00;;;;8273249;28;20229;-76
2023/12/31 11:21:54;;;;;;;43.90;18.93;;;;;6.80;95418.00;;;;8271764;28;20659;-77
2023/12/31 11:26:00;;;;;;;53.13;19.67;;;;;6.70;95416.00;;;;8272827;28;20388;-75
2023/12/31 11:30:04;;;;;;;52.53;19.10;;;;;6.70;95373.00;;;;8272347;28;20230;-75
2023/12/31 11:34:07;;;;;;;49.53;18.97;;;;;6.60;95365.00;;;;8273823;28;20297;-76
2023/12/31 11:38:11;;;;;;;53.23;21.73;;;;;6.70;95385.00;;;;8272746;28;20748;-74
2023/12/31 11:42:17;;;;;;;45.17;18.47;;;;;6.70;95377.00;;;;8271905;28;20206;-75
2023/12/31 11:46:33;;;;;;;48.40;19.17;;;;;6.70;95341.00;;;;8274401;28;20202;-75
2023/12/31 11:50:37;;;;;;;45.87;20.23;;;;;6.70;95340.00;;;;8274061;28;20237;-76
2023/12/31 11:54:41;;;;;;;41.83;17.40;;;;;6.70;95335.00;;;;8270951;28;20212;-75
2023/12/31 11:58:46;;;;;;;36.80;15.40;;;;;6.70;95304.00;;;;8271236;28;20202;-75
2023/12/31 12:02:51;;;;;;;44.27;19.77;;;;;6.80;95287.00;;;;8273588;28;20234;-74
2023/12/31 12:06:54;;;;;;;33.17;15.27;;;;;6.90;95278.00;;;;8273915;28;20197;-74
2023/12/31 12:10:58;;;;;;;32.50;14.57;;;;;6.90;95272.00;;;;8272543;28;20218;-74
2023/12/31 12:15:06;;;;;;;27.13;13.02;;;;;7.00;95295.00;;;;8273863;28;20315;-74
2023/12/31 12:19:11;;;;;;;30.92;14.65;;;;;7.10;95287.00;;;;8271816;28;20688;-79
2023/12/31 12:23:18;;;;;;;30.47;15.97;;;;;7.20;95278.00;;;;8273042;28;20240;-75
2023/12/31 12:27:21;;;;;;;37.73;18.60;;;;;7.30;95279.00;;;;8271328;28;20328;-77
2023/12/31 12:31:26;;;;;;;99.63;53.60;;;;;7.30;95256.00;;;;8270897;28;20766;-77
2023/12/31 12:35:29;;;;;;;546.93;339.10;;;;;7.40;95250.00;;;;8271965;28;20213;-77
2023/12/31 12:39:32;;;;;;;530.47;296.00;;;;;7.40;95227.00;;;;8269508;28;20838;-77
2023/12/31 12:43:36;;;;;;;122.40;63.57;;;;;7.40;95219.00;;;;8270768;28;20867;-77
2023/12/31 12:47:42;;;;;;;39.08;19.92;;;;;7.50;95213.00;;;;8270060;28;20190;-78
2023/12/31 12:51:46;;;;;;;29.73;16.17;;;;;7.40;95221.00;;;;8274987;28;21235;-77
2023/12/31 12:55:49;;;;;;;35.53;18.87;;;;;7.40;95212.00;;;;8276641;28;20210;-76
2023/12/31 12:59:52;;;;;;;29.37;13.53;;;;;7.40;95219.00;;;;8278207;28;20448;-77
2023/12/31 13:03:57;;;;;;;28.13;15.60;;;;;7.40;95214.00;;;;8259341;28;20282;-80
2023/12/31 13:08:00;;;;;;;25.83;14.13;;;;;7.30;95211.00;;;;8263720;28;20202;-76
2023/12/31 13:12:04;;;;;;;30.20;18.45;;;;;7.30;95203.00;;;;8263920;28;20859;-76
2023/12/31 13:16:08;;;;;;;29.17;16.38;;;;;7.10;95203.00;;;;8264315;28;21053;-79
2023/12/31 13:20:25;;;;;;;24.70;13.37;;;;;7.10;95204.00;;;;8260280;28;20194;-77
2023/12/31 13:24:28;;;;;;;26.70;14.18;;;;;7.10;95191.00;;;;8261964;28;20209;-79
2023/12/31 13:28:31;;;;;;;24.67;13.38;;;;;7.20;95194.00;;;;8260136;28;20715;-79
2023/12/31 13:32:34;;;;;;;24.73;13.47;;;;;7.10;95185.00;;;;8260254;28;20225;-80
2023/12/31 13:36:39;;;;;;;28.70;13.93;;;;;7.10;95183.00;;;;8264608;28;22356;-79
2023/12/31 13:40:42;;;;;;;28.77;12.87;;;;;7.10;95181.00;;;;8262193;28;20198;-78
2023/12/31 13:44:45;;;;;;;29.97;14.23;;;;;7.10;95185.00;;;;8262491;28;20201;-78
2023/12/31 13:48:48;;;;;;;848.97;291.90;;;;;7.10;95194.00;;;;8262228;28;20284;-81
2023/12/31 13:52:53;;;;;;;120.60;60.57;;;;;7.10;95192.00;;;;8261538;28;20222;-80
2023/12/31 13:56:56;;;;;;;54.20;28.17;;;;;7.00;95198.00;;;;8266644;28;20473;-77
2023/12/31 14:00:59;;;;;;;90.83;43.00;;;;;6.90;95208.00;;;;8276005;28;20984;-77
2023/12/31 14:05:03;;;;;;;34.08;18.63;;;;;6.80;95189.00;;;;8275162;28;20348;-77
2023/12/31 14:09:09;;;;;;;24.17;13.45;;;;;6.70;95217.00;;;;8275990;28;20205;-76
2023/12/31 14:13:13;;;;;;;26.85;13.93;;;;;6.60;95209.00;;;;8273005;28;20825;-75
2023/12/31 14:17:16;;;;;;;23.50;14.87;;;;;6.40;95218.00;;;;8273697;28;20326;-75
2023/12/31 14:21:20;;;;;;;29.03;14.23;;;;;6.40;95214.00;;;;8276342;28;20203;-76
2023/12/31 14:25:24;;;;;;;87.43;75.47;;;;;6.40;95239.00;;;;8278307;28;20208;-76
2023/12/31 14:29:27;;;;;;;26.95;14.77;;;;;6.40;95236.00;;;;8272847;28;20363;-80
2023/12/31 14:33:30;;;;;;;25.33;12.87;;;;;6.40;95248.00;;;;8267868;28;20198;-77
2023/12/31 14:37:34;;;;;;;27.77;15.33;;;;;6.40;95266.00;;;;8275751;28;20198;-76
2023/12/31 14:41:38;;;;;;;23.37;12.63;;;;;6.50;95269.00;;;;8274761;28;20221;-77
2023/12/31 14:45:41;;;;;;;19.83;11.17;;;;;6.50;95286.00;;;;8275202;28;20228;-78
2023/12/31 14:49:44;;;;;;;25.73;12.60;;;;;6.50;95300.00;;;;8275302;28;20233;-76
2023/12/31 14:53:48;;;;;;;24.67;13.57;;;;;6.40;95308.00;;;;8276376;28;20202;-77
2023/12/31 14:57:52;;;;;;;27.77;12.43;;;;;6.50;95310.00;;;;8276109;28;20236;-76
2023/12/31 15:01:55;;;;;;;24.47;12.33;;;;;6.50;95306.00;;;;8273655;28;20229;-77
2023/12/31 15:06:00;;;;;;;23.97;13.30;;;;;6.50;95297.00;;;;8273270;28;20206;-76
2023/12/31 15:10:03;;;;;;;23.17;13.53;;;;;6.50;95291.00;;;;8272931;28;20226;-78
2023/12/31 15:14:08;;;;;;;22.53;12.53;;;;;6.50;95295.00;;;;8275482;28;20240;-77
2023/12/31 15:18:12;;;;;;;20.83;11.33;;;;;6.40;95296.00;;;;8273551;28;20280;-77
2023/12/31 15:22:15;;;;;;;24.07;13.37;;;;;6.30;95293.00;;;;8273961;28;20825;-77
2023/12/31 15:26:18;;;;;;;43.47;28.17;;;;;6.20;95289.00;;;;8270811;28;20233;-76
2023/12/31 15:30:23;;;;;;;1644.30;621.50;;;;;6.10;95306.00;;;;8269361;28;20229;-76
2023/12/31 15:34:27;;;;;;;98.67;52.53;;;;;6.00;95302.00;;;;8270942;28;20281;-77
2023/12/31 15:38:30;;;;;;;34.53;18.07;;;;;5.90;95306.00;;;;8270843;28;20230;-74
2023/12/31 15:42:34;;;;;;;37.40;21.53;;;;;5.80;95304.00;;;;8271858;28;20202;-74
2023/12/31 15:46:38;;;;;;;30.03;17.97;;;;;5.70;95291.00;;;;8273703;28;20213;-76
2023/12/31 15:50:41;;;;;;;27.47;18.63;;;;;5.60;95301.00;;;;8271792;28;20221;-75
2023/12/31 15:54:44;;;;;;;20.07;11.37;;;;;5.60;95301.00;;;;8271022;28;20358;-75
2023/12/31 15:58:48;;;;;;;25.73;14.20;;;;;5.50;95282.00;;;;8273088;28;20201;-75
2023/12/31 16:02:53;;;;;;;20.53;10.87;;;;;5.50;95277.00;;;;8273123;28;20714;-76
2023/12/31 16:06:56;;;;;;;19.97;10.60;;;;;5.40;95262.00;;;;8271149;28;20198;-78
2023/12/31 16:11:00;;;;;;;19.20;10.60;;;;;5.40;95247.00;;;;8272779;28;20702;-76
2023/12/31 16:15:03;;;;;;;17.50;9.50;;;;;5.20;95248.00;;;;8273020;28;20201;-76
2023/12/31 16:19:08;;;;;;;19.47;10.83;;;;;5.20;95241.00;;;;8268831;28;20205;-76
2023/12/31 16:23:11;;;;;;;22.13;10.77;;;;;5.00;95248.00;;;;8273838;28;20244;-76
2023/12/31 16:27:15;;;;;;;19.10;10.60;;;;;5.00;95230.00;;;;8272816;28;20710;-77
2023/12/31 16:31:18;;;;;;;21.77;12.30;;;;;5.00;95240.00;;;;8273746;28;20989;-77
2023/12/31 16:35:22;;;;;;;21.40;9.87;;;;;4.90;95257.00;;;;8274613;28;20194;-76
2023/12/31 16:39:25;;;;;;;17.23;9.53;;;;;4.90;95281.00;;;;8272767;28;20229;-76
2023/12/31 16:43:28;;;;;;;22.40;11.63;;;;;4.80;95283.00;;;;8272213;28;20234;-78
2023/12/31 16:47:33;;;;;;;19.13;12.00;;;;;4.90;95284.00;;;;8270948;28;20202;-77
2023/12/31 16:51:38;;;;;;;23.80;12.00;;;;;5.00;95285.00;;;;8275092;28;20236;-77
2023/12/31 16:55:41;;;;;;;22.03;12.57;;;;;5.10;95296.00;;;;8274674;28;20202;-74
2023/12/31 16:59:44;;;;;;;26.47;12.50;;;;;5.10;95318.00;;;;8272168;28;20757;-75
2023/12/31 17:03:47;;;;;;;23.90;12.23;;;;;5.20;95340.00;;;;8274115;28;20316;-77
2023/12/31 17:07:52;;;;;;;19.43;10.87;;;;;5.20;95369.00;;;;8274894;28;20237;-76
2023/12/31 17:11:55;;;;;;;22.57;10.37;;;;;5.30;95376.00;;;;8274107;28;21755;-73
2023/12/31 17:15:58;;;;;;;29.07;14.13;;;;;5.30;95387.00;;;;8273173;28;20293;-75
2023/12/31 17:20:02;;;;;;;23.13;13.00;;;;;5.30;95386.00;;;;8275196;28;20903;-78
2023/12/31 17:24:07;;;;;;;26.13;13.20;;;;;5.40;95399.00;;;;8275965;28;20598;-75
2023/12/31 17:28:10;;;;;;;24.30;12.37;;;;;5.40;95417.00;;;;8274256;28;20206;-75
2023/12/31 17:32:14;;;;;;;19.43;11.53;;;;;5.50;95427.00;;;;8272147;28;21110;-75
2023/12/31 17:36:17;;;;;;;23.97;12.47;;;;;5.50;95440.00;;;;8276196;28;20742;-76
2023/12/31 17:40:21;;;;;;;26.60;13.50;;;;;5.50;95443.00;;;;8280806;28;20635;-76
2023/12/31 17:44:25;;;;;;;21.57;11.23;;;;;5.60;95444.00;;;;8280380;28;20210;-74
2023/12/31 17:48:28;;;;;;;34.37;14.30;;;;;5.60;95433.00;;;;8281417;28;20575;-74
2023/12/31 17:52:31;;;;;;;29.33;12.97;;;;;5.60;95431.00;;;;8280140;28;20348;-76
2023/12/31 17:56:36;;;;;;;22.47;11.47;;;;;5.60;95438.00;;;;8282383;28;20209;-78
2023/12/31 18:00:39;;;;;;;16.77;9.40;;;;;5.60;95432.00;;;;8277251;28;20786;-72
2023/12/31 18:04:42;;;;;;;25.90;13.30;;;;;5.70;95428.00;;;;8279620;28;20316;-75
2023/12/31 18:08:49;;;;;;;33.70;18.53;;;;;5.70;95429.00;;;;8279589;28;20620;-73
2023/12/31 18:12:55;;;;;;;27.93;14.23;;;;;5.70;95420.00;;;;8277608;28;20235;-72
2023/12/31 18:16:58;;;;;;;138.77;47.90;;;;;5.70;95424.00;;;;8277542;28;20208;-73
2023/12/31 18:21:02;;;;;;;29.23;13.70;;;;;5.70;95426.00;;;;8278862;28;20717;-72
2023/12/31 18:25:05;;;;;;;25.20;12.03;;;;;5.70;95437.00;;;;8281572;28;20290;-73
2023/12/31 18:29:11;;;;;;;26.27;12.70;;;;;5.60;95442.00;;;;8279109;28;20846;-72
2023/12/31 18:33:14;;;;;;;14.57;8.93;;;;;5.60;95435.00;;;;8279832;28;20618;-70
2023/12/31 18:37:17;;;;;;;39.17;16.43;;;;;5.60;95433.00;;;;8277147;28;20232;-72
2023/12/31 18:41:20;;;;;;;16.80;9.97;;;;;5.70;95422.00;;;;8280477;28;20867;-71
2023/12/31 18:45:25;;;;;;;37.00;17.77;;;;;5.70;95424.00;;;;8277653;28;20202;-70
2023/12/31 18:49:28;;;;;;;18.90;10.77;;;;;5.70;95427.00;;;;8277255;28;20212;-74
2023/12/31 18:53:31;;;;;;;19.53;9.60;;;;;5.60;95416.00;;;;8277208;28;20834;-72
2023/12/31 18:57:34;;;;;;;21.73;10.63;;;;;5.60;95419.00;;;;8277171;28;20190;-69
2023/12/31 19:01:39;;;;;;;50.63;24.73;;;;;5.60;95433.00;;;;8274762;28;20637;-72
2023/12/31 19:05:43;;;;;;;26.50;12.07;;;;;5.50;95434.00;;;;8272552;28;20204;-70
2023/12/31 19:09:46;;;;;;;27.17;12.63;;;;;5.50;95438.00;;;;8275509;28;20244;-70
2023/12/31 19:13:49;;;;;;;24.37;9.87;;;;;5.40;95458.00;;;;8276581;28;20236;-74
2023/12/31 19:17:54;;;;;;;28.80;14.60;;;;;5.40;95464.00;;;;8274854;28;20202;-71
2023/12/31 19:21:57;;;;;;;38.73;17.80;;;;;5.40;95466.00;;;;8274863;28;20784;-74
2023/12/31 19:26:00;;;;;;;27.47;13.97;;;;;5.30;95488.00;;;;8273452;28;20198;-74
2023/12/31 19:30:07;;;;;;;29.17;13.50;;;;;5.30;95487.00;;;;8276356;28;20194;-72
2023/12/31 19:34:11;;;;;;;24.90;12.27;;;;;5.30;95494.00;;;;8272460;28;20222;-74
2023/12/31 19:38:15;;;;;;;88.93;38.30;;;;;5.30;95495.00;;;;8275180;28;20292;-72
2023/12/31 19:42:18;;;;;;;34.73;16.17;;;;;5.30;95486.00;;;;8273295;28;20190;-73
2023/12/31 19:46:21;;;;;;;29.57;14.67;;;;;5.40;95489.00;;;;8276225;28;20236;-73
2023/12/31 19:50:25;;;;;;;24.77;12.27;;;;;5.40;95496.00;;;;8272082;28;20300;-76
2023/12/31 19:54:28;;;;;;;19.93;10.50;;;;;5.40;95500.00;;;;8272449;28;20236;-75
2023/12/31 19:58:32;;;;;;;21.00;9.13;;;;;5.40;95503.00;;;;8273700;28;20209;-78
2023/12/31 20:02:37;;;;;;;27.60;11.40;;;;;5.40;95502.00;;;;8273218;28;20233;-77